Islotes Evangelistas, Chile
Current Conditions -  °F | °C
As of 4:00 AM on Friday 31 Oct 2014 (Local Time) from SCCI Reporting Station
Scattered Clouds Scattered Clouds  
Wind Chill: 24°   Ceiling: Unl
Heat Index: 32°   Visibility: 6mi
Dew Point: 25°   Wind: 10mph
Humidity: 75%   Direction: 230°SW
Pressure: 30"   Gusts: NA
Location:  52.4°S, 75.1°W
Report Text: SCCI 310800Z 23009KT 9999 FEW023 SCT080 00/M04 Q1016 NOSIG
Loading
Personal Weather Stations






























Interactive Weather Map
Tropical Storm Tracking
New forecast layout! Learn more

10-Day Weather Forecast

Advertisements
Track Severe Weather on mobile